ΕΜΥ, Εθνική Μετεωρολογική Υπηρεσία - Δελτία Καιρού, Προγνώσεις

ΑΕΡΟΝΑΥΤΙΛΙΑ

GREEK AIRPORTS CODES

LGAV 050520Z 35014KT CAVOK 27/07 Q1012 RMK NOSIG=

EUROPEAN AIRPORTS CODES

EDDB 050520Z 01010KT CAVOK 18/10 Q1020 NOSIG=